Observations for CAGLIARI ELMAS, Italy (LIEE)

LIEE 100220Z 33024KT CAVOK 14/07 Q1019  
LIEE 100150Z 33026G41KT CAVOK 14/07 Q1019   
LIEE 100120Z 32025G37KT CAVOK 15/06 Q1019   
LIEE 100050Z 32024G34KT CAVOK 15/07 Q1018   
LIEE 100020Z 31024G34KT CAVOK 15/07 Q1018   
LIEE 092350Z 32025KT CAVOK 15/07 Q1018  
LIEE 092320Z 32025G37KT CAVOK 15/08 Q1018   
LIEE 092250Z 32022G32KT CAVOK 15/08 Q1019   
LIEE 092150Z 31017G28KT 9999 FEW040 16/08 Q1020 
LIEE 092120Z 30015G26KT 9999 SCT040 16/09 Q1020 
LIEE 092050Z 31017KT 9999 SCT040 16/08 Q1021
LIEE 092020Z 31014KT 9999 BKN045 16/09 Q1020
LIEE 091950Z 31016KT 9999 BKN045 16/10 Q1020
LIEE 091920Z 32018KT 9999 BKN045 16/10 Q1020
LIEE 091850Z 32022KT 9999 FEW035 BKN045 16/10 Q1020 
LIEE 091820Z 33023G38KT 9999 FEW035 BKN045 16/10 Q1020  
LIEE 091750Z 31022KT 9999 FEW035 BKN045 16/10 Q1019 
LIEE 091720Z 32014KT 9999 SCT040 BKN050 16/11 Q1020 
LIEE 091650Z 30014KT 9999 SCT035 BKN050 16/11 Q1019 
LIEE 091620Z 31011KT 9999 BKN035 16/10 Q1020
LIEE 091550Z 30010KT 9999 BKN035 16/11 Q1020
LIEE 091520Z 29016KT 9999 SCT035 16/10 Q1019
LIEE 091450Z 29018KT 9999 FEW035 17/10 Q1019
LIEE 091420Z 29016KT 9999 FEW035 17/10 Q1020
LIEE 091350Z 28018KT 9999 FEW040 17/10 Q1020
LIEE 091320Z 29018KT 9999 FEW040 17/10 Q1020
LIEE 091220Z 29016KT 9999 SCT040 18/11 Q1021
LIEE 091150Z 29016KT 9999 SCT040 18/10 Q1021
LIEE 091120Z 28015KT 9999 SCT030 18/11 Q1022
LIEE 091050Z 30014KT 9999 SCT030 17/11 Q1022
LIEE 091020Z 29015KT 9999 FEW050 18/11 Q1023
LIEE 090950Z 29012KT 9999 FEW050 17/11 Q1023
LIEE 090920Z 29009KT 9999 SCT050 16/10 Q1023
LIEE 090850Z 32006KT 9999 SCT050 15/11 Q1023
LIEE 090750Z 32007KT 9999 FEW050 15/11 Q1023
LIEE 090720Z 31009KT 9999 FEW040 15/11 Q1023
LIEE 090650Z 30011KT 9999 FEW040 15/10 Q1022
LIEE 090620Z 31014KT 9999 FEW040 14/10 Q1022
LIEE 090550Z 31015KT 9999 FEW040 14/10 Q1021
LIEE 090520Z 31012KT 9999 SCT035 14/10 Q1021
LIEE 090450Z 31011KT 9999 FEW035 14/11 Q1022
LIEE 090420Z 32016G26KT 9999 SCT035 15/10 Q1022 
LIEE 090350Z 32013KT 9999 SCT040 15/09 Q1022
LIEE 090320Z 32016KT 9999 SCT040 15/09 Q1022
LIEE 090250Z 32015KT 9999 SCT040 14/09 Q1022
LIEE 090220Z 32012KT 9999 SCT040 14/09 Q1022
LIEE 090150Z 32014KT 9999 FEW040 13/09 Q1022